createdAt,value
2023-07-08T00:03:24.417Z,30.63
2023-07-08T00:07:21.844Z,30.71
2023-07-08T00:11:22.900Z,30.69
2023-07-08T00:15:22.012Z,30.63
2023-07-08T00:19:23.411Z,30.66
2023-07-08T00:23:22.155Z,30.73
2023-07-08T00:27:23.168Z,30.65
2023-07-08T00:31:21.934Z,30.59
2023-07-08T00:35:23.631Z,30.54
2023-07-08T00:39:21.915Z,30.51
2023-07-08T00:43:22.883Z,30.47
2023-07-08T00:47:21.112Z,30.44
2023-07-08T00:51:20.303Z,30.40
2023-07-08T00:55:20.952Z,30.30
2023-07-08T00:59:18.147Z,30.23
2023-07-08T01:03:19.133Z,30.20
2023-07-08T01:07:18.074Z,30.22
2023-07-08T01:11:19.647Z,30.17
2023-07-08T01:15:19.977Z,30.17
2023-07-08T01:19:21.677Z,30.15
2023-07-08T01:23:20.203Z,30.05
2023-07-08T01:27:19.200Z,30.00
2023-07-08T01:31:11.808Z,30.02
2023-07-08T01:35:08.241Z,29.99
2023-07-08T01:39:12.163Z,30.09
2023-07-08T01:42:52.079Z,30.08
2023-07-08T01:46:53.213Z,30.09
2023-07-08T01:50:52.258Z,30.11
2023-07-08T01:54:53.597Z,30.11
2023-07-08T01:58:51.182Z,30.17
2023-07-08T02:02:50.586Z,30.28
2023-07-08T02:06:43.840Z,30.20
2023-07-08T02:10:46.748Z,30.00
2023-07-08T02:14:45.151Z,29.95
2023-07-08T02:18:46.845Z,29.98
2023-07-08T02:22:45.094Z,29.98
2023-07-08T02:26:46.818Z,30.04
2023-07-08T02:30:45.285Z,30.05
2023-07-08T02:34:44.973Z,30.14
2023-07-08T02:38:37.900Z,30.21
2023-07-08T02:42:34.683Z,30.28
2023-07-08T02:46:37.323Z,30.24
2023-07-08T02:50:39.742Z,30.28
2023-07-08T02:54:38.228Z,30.37
2023-07-08T02:58:39.269Z,30.41
2023-07-08T03:02:37.365Z,30.49
2023-07-08T03:06:40.066Z,30.50
2023-07-08T03:10:33.092Z,30.49
2023-07-08T03:14:36.825Z,30.52
2023-07-08T03:18:35.344Z,30.57
2023-07-08T03:22:36.904Z,30.54
2023-07-08T03:26:34.239Z,30.56
2023-07-08T03:30:35.926Z,30.62
2023-07-08T03:34:34.392Z,30.61
2023-07-08T03:38:35.323Z,30.63
2023-07-08T03:42:29.209Z,30.55
2023-07-08T03:46:14.096Z,30.53
2023-07-08T03:50:04.707Z,30.61
2023-07-08T03:54:06.944Z,30.72
2023-07-08T03:58:05.247Z,30.63
2023-07-08T04:02:07.572Z,30.60
2023-07-08T04:06:05.562Z,30.47
2023-07-08T04:10:07.448Z,30.58
2023-07-08T04:14:05.543Z,30.66
2023-07-08T04:18:03.254Z,30.72
2023-07-08T04:22:03.538Z,30.76
2023-07-08T04:26:01.135Z,30.71
2023-07-08T04:29:53.139Z,30.64
2023-07-08T04:33:43.056Z,30.61
2023-07-08T04:37:38.389Z,30.64
2023-07-08T04:41:31.039Z,30.66
2023-07-08T04:45:34.364Z,30.82
2023-07-08T04:49:33.241Z,30.96
2023-07-08T04:53:29.695Z,31.00
2023-07-08T04:57:31.024Z,30.92
2023-07-08T05:01:29.816Z,30.99
2023-07-08T05:05:31.687Z,31.09
2023-07-08T05:09:30.568Z,31.11
2023-07-08T05:13:32.519Z,30.99
2023-07-08T05:17:30.723Z,31.04
2023-07-08T05:21:21.045Z,31.05
2023-07-08T05:25:08.525Z,31.18
2023-07-08T05:28:55.999Z,31.27
2023-07-08T05:32:42.839Z,31.26
2023-07-08T05:36:28.614Z,31.24
2023-07-08T05:40:13.391Z,31.26
2023-07-08T05:44:00.082Z,31.36
2023-07-08T05:47:44.806Z,31.43
2023-07-08T05:51:29.627Z,31.42
2023-07-08T05:55:14.783Z,31.37
2023-07-08T05:59:06.840Z,31.37
2023-07-08T06:02:58.921Z,31.44
2023-07-08T06:06:52.884Z,31.53
2023-07-08T06:10:58.196Z,31.55
2023-07-08T06:14:55.756Z,31.58
2023-07-08T06:18:58.252Z,31.62
2023-07-08T06:22:55.628Z,31.59
2023-07-08T06:26:59.674Z,31.61
2023-07-08T06:30:56.672Z,31.60
2023-07-08T06:34:56.314Z,31.70
2023-07-08T06:38:55.018Z,31.73
2023-07-08T06:42:31.316Z,31.75
2023-07-08T06:45:29.401Z,31.92
2023-07-08T06:48:17.952Z,32.09
2023-07-08T06:51:07.771Z,32.26
2023-07-08T06:53:56.186Z,32.44
2023-07-08T06:56:44.654Z,32.58
2023-07-08T06:59:33.749Z,32.64
2023-07-08T07:02:22.194Z,32.79
2023-07-08T07:05:10.799Z,32.79
2023-07-08T07:07:59.295Z,32.69
2023-07-08T07:10:47.538Z,32.64
2023-07-08T07:13:36.590Z,32.70
2023-07-08T07:16:24.961Z,32.68
2023-07-08T07:19:13.662Z,32.71
2023-07-08T07:22:02.144Z,32.85
2023-07-08T07:24:52.805Z,32.94
2023-07-08T07:27:41.684Z,32.97
2023-07-08T07:30:30.230Z,33.10
2023-07-08T07:33:18.732Z,33.05
2023-07-08T07:36:07.702Z,32.96
2023-07-08T07:38:55.933Z,32.99
2023-07-08T07:41:44.517Z,32.94
2023-07-08T07:44:34.451Z,32.88
2023-07-08T07:47:23.162Z,32.80
2023-07-08T07:50:11.641Z,32.76
2023-07-08T07:53:00.361Z,32.74
2023-07-08T07:55:48.893Z,32.59
2023-07-08T07:58:38.626Z,32.53
2023-07-08T08:01:27.013Z,32.60
2023-07-08T08:04:15.635Z,32.62
2023-07-08T08:07:04.650Z,32.60
2023-07-08T08:09:53.293Z,32.64
2023-07-08T08:12:52.954Z,32.64
2023-07-08T08:15:51.898Z,32.70
2023-07-08T08:18:40.332Z,32.79
2023-07-08T08:21:29.523Z,32.93
2023-07-08T08:24:17.998Z,33.07
2023-07-08T08:27:07.026Z,33.01
2023-07-08T08:29:56.085Z,33.13
2023-07-08T08:32:44.592Z,33.43
2023-07-08T08:35:34.810Z,33.73
2023-07-08T08:38:23.944Z,33.81
2023-07-08T08:41:25.016Z,33.84
2023-07-08T08:44:15.639Z,33.92
2023-07-08T08:47:38.980Z,34.22
2023-07-08T08:50:57.252Z,34.39
2023-07-08T08:53:47.320Z,34.15
2023-07-08T08:56:58.861Z,34.01
2023-07-08T08:59:54.367Z,34.31
2023-07-08T09:03:05.423Z,34.81
2023-07-08T09:06:07.310Z,35.16
2023-07-08T09:09:17.300Z,35.14
2023-07-08T09:12:17.598Z,35.00
2023-07-08T09:15:12.920Z,34.96
2023-07-08T09:18:11.722Z,34.89
2023-07-08T09:21:01.528Z,34.88
2023-07-08T09:23:51.173Z,35.01
2023-07-08T09:26:40.532Z,34.98
2023-07-08T09:29:30.171Z,34.95
2023-07-08T09:32:23.735Z,35.01
2023-07-08T09:35:26.481Z,35.04
2023-07-08T09:38:21.836Z,35.07
2023-07-08T09:41:11.003Z,35.29
2023-07-08T09:44:29.513Z,35.57
2023-07-08T09:47:24.306Z,35.67
2023-07-08T09:50:28.571Z,35.63
2023-07-08T09:53:17.462Z,35.66
2023-07-08T09:56:06.475Z,35.87
2023-07-08T09:58:56.113Z,36.04
2023-07-08T10:01:45.221Z,36.28
2023-07-08T10:04:34.488Z,36.67
2023-07-08T10:07:24.072Z,36.83
2023-07-08T10:10:16.246Z,36.85
2023-07-08T10:13:20.293Z,36.97
2023-07-08T10:16:24.208Z,36.87
2023-07-08T10:19:17.288Z,36.81
2023-07-08T10:22:08.869Z,36.85
2023-07-08T10:25:09.428Z,36.68
2023-07-08T10:28:26.716Z,36.66
2023-07-08T10:31:15.739Z,36.55
2023-07-08T10:34:29.780Z,36.31
2023-07-08T10:37:41.470Z,36.09
2023-07-08T10:40:49.964Z,36.18
2023-07-08T10:43:48.524Z,36.16
2023-07-08T10:47:01.719Z,36.17
2023-07-08T10:50:18.747Z,36.37
2023-07-08T10:53:32.476Z,36.48
2023-07-08T10:56:38.861Z,36.81
2023-07-08T10:59:43.363Z,37.05
2023-07-08T11:03:01.174Z,37.14
2023-07-08T11:06:23.482Z,37.28
2023-07-08T11:09:16.752Z,37.40
2023-07-08T11:12:18.832Z,37.41
2023-07-08T11:15:22.152Z,37.21
2023-07-08T11:18:31.674Z,36.96
2023-07-08T11:21:40.563Z,36.60
2023-07-08T11:24:35.691Z,36.31
2023-07-08T11:27:38.300Z,36.17
2023-07-08T11:30:36.166Z,36.05
2023-07-08T11:33:31.771Z,35.70
2023-07-08T11:36:22.494Z,35.40
2023-07-08T11:39:30.976Z,35.16
2023-07-08T11:42:32.405Z,34.89
2023-07-08T11:45:36.766Z,34.79
2023-07-08T11:48:40.903Z,34.83
2023-07-08T11:51:31.723Z,34.79
2023-07-08T11:54:29.972Z,34.65
2023-07-08T11:57:29.305Z,34.57
2023-07-08T12:00:22.792Z,34.44
2023-07-08T12:03:25.247Z,34.34
2023-07-08T12:06:31.420Z,34.26
2023-07-08T12:09:27.773Z,34.18
2023-07-08T12:12:32.463Z,34.03
2023-07-08T12:15:26.074Z,33.90
2023-07-08T12:18:26.192Z,33.90
2023-07-08T12:21:16.769Z,33.82
2023-07-08T12:24:07.840Z,33.83
2023-07-08T12:26:58.718Z,33.91
2023-07-08T12:29:50.827Z,33.95
2023-07-08T12:32:41.106Z,33.79
2023-07-08T12:35:35.775Z,33.83
2023-07-08T12:38:36.179Z,33.91
2023-07-08T12:41:30.938Z,33.87
2023-07-08T12:44:25.328Z,33.83
2023-07-08T12:47:14.611Z,33.88
2023-07-08T12:50:04.283Z,33.78
2023-07-08T12:52:53.857Z,33.71
2023-07-08T12:55:44.689Z,33.58
2023-07-08T12:58:35.880Z,33.56
2023-07-08T13:01:26.934Z,33.44
2023-07-08T13:04:16.298Z,33.33
2023-07-08T13:07:05.828Z,33.24
2023-07-08T13:09:54.308Z,33.31
2023-07-08T13:12:42.927Z,33.33
2023-07-08T13:15:40.550Z,33.39
2023-07-08T13:18:37.216Z,33.72
2023-07-08T13:21:25.650Z,33.76
2023-07-08T13:24:14.805Z,33.77
2023-07-08T13:27:05.295Z,33.72
2023-07-08T13:29:55.200Z,33.72
2023-07-08T13:32:44.302Z,33.75
2023-07-08T13:35:38.469Z,33.83
2023-07-08T13:38:29.064Z,33.81
2023-07-08T13:41:21.457Z,33.74
2023-07-08T13:44:10.178Z,33.70
2023-07-08T13:47:00.868Z,33.65
2023-07-08T13:49:50.134Z,33.70
2023-07-08T13:52:38.414Z,33.71
2023-07-08T13:55:27.422Z,33.82
2023-07-08T13:58:17.633Z,33.77
2023-07-08T14:01:06.206Z,33.71
2023-07-08T14:03:57.647Z,33.62
2023-07-08T14:06:47.441Z,33.58
2023-07-08T14:09:37.631Z,33.42
2023-07-08T14:12:26.290Z,33.38
2023-07-08T14:15:14.959Z,33.36
2023-07-08T14:18:03.118Z,33.38
2023-07-08T14:20:51.748Z,33.31
2023-07-08T14:23:40.244Z,33.25
2023-07-08T14:26:31.511Z,33.28
2023-07-08T14:29:19.683Z,33.33
2023-07-08T14:32:31.203Z,33.19
2023-07-08T14:35:30.920Z,33.11
2023-07-08T14:38:20.124Z,33.05
2023-07-08T14:41:09.155Z,33.09
2023-07-08T14:44:05.381Z,32.97
2023-07-08T14:46:57.595Z,32.90
2023-07-08T14:49:47.503Z,32.87
2023-07-08T14:52:36.020Z,32.81
2023-07-08T14:55:24.627Z,32.68
2023-07-08T14:58:29.896Z,32.63
2023-07-08T15:01:21.829Z,32.51
2023-07-08T15:04:15.539Z,32.53
2023-07-08T15:07:06.778Z,32.52
2023-07-08T15:09:56.619Z,32.52
2023-07-08T15:12:48.067Z,32.61
2023-07-08T15:15:38.258Z,32.69
2023-07-08T15:18:28.277Z,32.72
2023-07-08T15:21:16.464Z,32.79
2023-07-08T15:24:18.483Z,32.80
2023-07-08T15:27:10.091Z,32.81
2023-07-08T15:29:58.810Z,32.90
2023-07-08T15:32:48.920Z,32.90
2023-07-08T15:35:37.532Z,32.92
2023-07-08T15:38:26.027Z,33.08
2023-07-08T15:41:24.603Z,33.25
2023-07-08T15:44:13.664Z,33.47
2023-07-08T15:47:02.681Z,33.77
2023-07-08T15:49:51.198Z,33.95
2023-07-08T15:52:39.826Z,33.94
2023-07-08T15:55:30.168Z,33.81
2023-07-08T15:58:25.653Z,33.89
2023-07-08T16:01:19.054Z,33.93
2023-07-08T16:04:33.568Z,33.93
2023-07-08T16:07:22.011Z,34.03
2023-07-08T16:10:10.776Z,34.07
2023-07-08T16:12:59.913Z,33.92
2023-07-08T16:15:48.635Z,33.82
2023-07-08T16:18:39.980Z,33.82
2023-07-08T16:21:33.179Z,33.87
2023-07-08T16:24:21.708Z,33.86
2023-07-08T16:27:12.214Z,33.86
2023-07-08T16:30:02.792Z,33.80
2023-07-08T16:32:53.247Z,33.74
2023-07-08T16:35:42.388Z,33.57
2023-07-08T16:38:31.185Z,33.42
2023-07-08T16:41:23.247Z,33.25
2023-07-08T16:44:15.985Z,33.09
2023-07-08T16:47:04.906Z,32.93
2023-07-08T16:49:53.920Z,32.95
2023-07-08T16:52:42.524Z,32.85
2023-07-08T16:55:32.551Z,32.75
2023-07-08T16:58:20.915Z,32.67
2023-07-08T17:01:18.752Z,32.64
2023-07-08T17:04:13.272Z,32.61
2023-07-08T17:07:02.123Z,32.59
2023-07-08T17:09:52.275Z,32.52
2023-07-08T17:12:41.502Z,32.48
2023-07-08T17:15:31.071Z,32.38
2023-07-08T17:18:21.091Z,32.31
2023-07-08T17:21:14.440Z,32.32
2023-07-08T17:24:28.637Z,32.32
2023-07-08T17:28:33.975Z,32.32
2023-07-08T17:32:33.111Z,32.30
2023-07-08T17:36:35.673Z,32.30
2023-07-08T17:40:32.504Z,32.17
2023-07-08T17:44:34.450Z,32.11
2023-07-08T17:48:30.039Z,32.01
2023-07-08T17:52:32.476Z,32.00
2023-07-08T17:56:31.091Z,31.99
2023-07-08T18:00:34.955Z,31.90
2023-07-08T18:04:34.345Z,31.80
2023-07-08T18:08:34.171Z,31.77
2023-07-08T18:12:34.176Z,31.70
2023-07-08T18:16:36.143Z,31.63
2023-07-08T18:20:34.109Z,31.61
2023-07-08T18:24:34.104Z,31.49
2023-07-08T18:28:33.075Z,31.48
2023-07-08T18:32:33.525Z,31.47
2023-07-08T18:36:35.070Z,31.51
2023-07-08T18:40:37.502Z,31.60
2023-07-08T18:43:34.349Z,31.55
2023-07-08T18:46:23.282Z,31.62
2023-07-08T18:49:19.023Z,31.66
2023-07-08T18:52:09.357Z,31.64
2023-07-08T18:54:59.217Z,31.62
2023-07-08T18:57:47.894Z,31.61
2023-07-08T19:00:37.076Z,31.60
2023-07-08T19:03:30.161Z,31.60
2023-07-08T19:06:19.580Z,31.54
2023-07-08T19:09:08.092Z,31.51
2023-07-08T19:11:56.260Z,31.43
2023-07-08T19:15:14.887Z,31.36
2023-07-08T19:18:02.468Z,31.32
2023-07-08T19:20:53.381Z,31.44
2023-07-08T19:23:48.561Z,31.40
2023-07-08T19:26:41.508Z,31.30
2023-07-08T19:29:30.172Z,31.19
2023-07-08T19:32:29.841Z,31.19
2023-07-08T19:35:25.011Z,31.20
2023-07-08T19:38:16.807Z,31.26
2023-07-08T19:41:07.445Z,31.25
2023-07-08T19:43:56.887Z,31.16
2023-07-08T19:46:46.032Z,31.15
2023-07-08T19:49:35.097Z,31.16
2023-07-08T19:52:24.248Z,31.08
2023-07-08T19:55:14.931Z,31.00
2023-07-08T19:58:05.234Z,30.99
2023-07-08T20:00:54.773Z,31.01
2023-07-08T20:03:43.860Z,30.92
2023-07-08T20:06:33.392Z,30.88
2023-07-08T20:09:27.285Z,30.84
2023-07-08T20:12:16.157Z,30.82
2023-07-08T20:15:05.749Z,30.91
2023-07-08T20:17:57.031Z,30.96
2023-07-08T20:20:47.534Z,30.94
2023-07-08T20:23:38.885Z,30.88
2023-07-08T20:26:32.824Z,30.98
2023-07-08T20:29:22.260Z,31.09
2023-07-08T20:32:13.943Z,31.06
2023-07-08T20:35:03.464Z,31.00
2023-07-08T20:37:55.486Z,31.00
2023-07-08T20:40:44.996Z,30.99
2023-07-08T20:43:34.243Z,31.00
2023-07-08T20:46:26.622Z,31.13
2023-07-08T20:49:15.721Z,31.19
2023-07-08T20:52:04.888Z,31.09
2023-07-08T20:54:56.415Z,31.08
2023-07-08T20:57:46.034Z,31.07
2023-07-08T21:00:35.631Z,31.07
2023-07-08T21:03:24.386Z,30.96
2023-07-08T21:06:24.927Z,30.90
2023-07-08T21:09:15.277Z,30.90
2023-07-08T21:12:05.111Z,30.99
2023-07-08T21:14:53.698Z,31.02
2023-07-08T21:17:43.919Z,31.01
2023-07-08T21:20:32.691Z,31.01
2023-07-08T21:23:22.946Z,31.05
2023-07-08T21:26:21.909Z,31.15
2023-07-08T21:29:12.619Z,31.17
2023-07-08T21:32:08.091Z,31.06
2023-07-08T21:34:56.844Z,31.09
2023-07-08T21:37:52.144Z,31.09
2023-07-08T21:40:49.607Z,31.05
2023-07-08T21:43:39.779Z,31.05
2023-07-08T21:46:28.232Z,31.10
2023-07-08T21:49:18.060Z,31.06
2023-07-08T21:52:08.846Z,31.07
2023-07-08T21:54:57.300Z,31.03
2023-07-08T21:57:46.310Z,31.03
2023-07-08T22:00:36.283Z,31.01
2023-07-08T22:03:43.654Z,31.07
2023-07-08T22:06:32.307Z,31.09
2023-07-08T22:09:20.972Z,31.11
2023-07-08T22:12:12.595Z,31.02
2023-07-08T22:15:02.594Z,31.03
2023-07-08T22:17:54.078Z,30.99
2023-07-08T22:20:44.675Z,30.86
2023-07-08T22:23:34.377Z,30.81
2023-07-08T22:26:23.519Z,30.84
2023-07-08T22:29:12.349Z,30.76
2023-07-08T22:32:03.419Z,30.80
2023-07-08T22:34:52.168Z,30.74
2023-07-08T22:37:41.127Z,30.65
2023-07-08T22:40:30.197Z,30.59
2023-07-08T22:43:29.473Z,30.66
2023-07-08T22:46:17.337Z,30.79
2023-07-08T22:49:08.616Z,30.84
2023-07-08T22:51:57.695Z,30.84
2023-07-08T22:54:48.993Z,30.85
2023-07-08T22:57:38.093Z,30.86
2023-07-08T23:00:27.077Z,30.82
2023-07-08T23:03:22.463Z,30.77
2023-07-08T23:06:12.733Z,30.76
2023-07-08T23:09:02.766Z,30.74
2023-07-08T23:11:55.410Z,30.70
2023-07-08T23:14:43.906Z,30.71
2023-07-08T23:17:34.199Z,30.65
2023-07-08T23:20:23.458Z,30.68
2023-07-08T23:23:13.166Z,30.68
2023-07-08T23:26:05.045Z,30.70
2023-07-08T23:28:55.380Z,30.68
2023-07-08T23:31:44.065Z,30.67
2023-07-08T23:34:33.167Z,30.65
2023-07-08T23:37:24.759Z,30.60
2023-07-08T23:40:16.217Z,30.66
2023-07-08T23:43:06.225Z,30.61
2023-07-08T23:45:55.295Z,30.61
2023-07-08T23:48:45.638Z,30.69
2023-07-08T23:51:34.904Z,30.74
2023-07-08T23:54:25.201Z,30.75
2023-07-08T23:57:18.273Z,30.78
